Time;durP1;ratioP1;P1;durP2;ratioP2;P2;SDS_P1;SDS_P2;PMS_P1;PMS_P2;Temp;Humidity;BMP_temperature;BMP_pressure;BME280_temperature;BME280_humidity;BME280_pressure;Samples;Min_cycle;Max_cycle;Signal;HPM_P1;HPM_P2
2024/01/27 00:01:22;;;;;;;17.08;2.60;;;6.80;99.90;;;;;;5026022;28;20407;-73
2024/01/27 00:03:48;;;;;;;15.98;2.80;;;6.80;99.90;;;;;;5024609;28;20022;-73
2024/01/27 00:06:13;;;;;;;26.73;3.17;;;6.80;99.90;;;;;;5025142;28;20041;-73
2024/01/27 00:08:41;;;;;;;22.75;3.15;;;6.80;99.90;;;;;;5020312;28;20041;-73
2024/01/27 00:11:07;;;;;;;23.35;2.95;;;6.80;99.90;;;;;;5024743;28;20057;-73
2024/01/27 00:13:32;;;;;;;25.45;2.83;;;6.80;99.90;;;;;;5027675;28;20053;-73
2024/01/27 00:15:58;;;;;;;21.30;2.92;;;6.80;99.90;;;;;;5025081;28;20029;-73
2024/01/27 00:18:24;;;;;;;22.80;3.15;;;6.80;99.90;;;;;;5023258;28;20040;-73
2024/01/27 00:20:49;;;;;;;22.30;3.47;;;6.70;99.90;;;;;;5022568;28;20034;-73
2024/01/27 00:23:15;;;;;;;29.85;2.90;;;6.70;99.90;;;;;;5021837;28;20030;-73
2024/01/27 00:25:43;;;;;;;22.88;3.00;;;6.80;99.90;;;;;;5023268;28;20022;-73
2024/01/27 00:28:08;;;;;;;22.02;2.70;;;6.80;99.90;;;;;;5020769;28;20109;-73
2024/01/27 00:30:34;;;;;;;17.98;3.35;;;6.80;99.90;;;;;;5021989;28;20132;-73
2024/01/27 00:33:02;;;;;;;19.60;2.70;;;6.80;99.90;;;;;;5025786;28;20041;-73
2024/01/27 00:35:27;;;;;;;17.77;2.30;;;6.80;99.90;;;;;;5020729;28;20041;-73
2024/01/27 00:37:53;;;;;;;23.08;2.72;;;6.80;99.90;;;;;;5026074;28;20030;-73
2024/01/27 00:40:19;;;;;;;28.13;3.20;;;6.80;99.90;;;;;;5025864;28;20551;-73
2024/01/27 00:42:44;;;;;;;16.50;2.60;;;6.80;99.90;;;;;;5026004;28;20048;-73
2024/01/27 00:45:12;;;;;;;17.25;2.20;;;6.80;99.90;;;;;;5030903;23;20103;-73
2024/01/27 00:47:40;;;;;;;;;;;6.80;99.90;;;;;;5006794;28;20061;-73
2024/01/27 00:50:08;;;;;;;19.15;2.55;;;6.80;99.90;;;;;;5005445;28;19914;-72
2024/01/27 00:52:34;;;;;;;18.30;2.35;;;6.90;99.90;;;;;;5005773;28;20018;-73
2024/01/27 00:54:59;;;;;;;26.25;3.08;;;6.80;99.90;;;;;;5007784;28;20032;-73
2024/01/27 00:57:25;;;;;;;22.35;2.42;;;6.80;99.90;;;;;;5006087;28;20059;-73
2024/01/27 00:59:53;;;;;;;22.67;3.40;;;6.90;99.90;;;;;;5007549;28;20041;-72
2024/01/27 01:02:20;;;;;;;24.65;2.63;;;6.90;99.90;;;;;;5004057;28;20054;-72
2024/01/27 01:04:47;;;;;;;38.60;4.20;;;6.80;99.90;;;;;;5009681;28;20531;-72
2024/01/27 01:07:13;;;;;;;19.57;3.13;;;6.90;99.90;;;;;;5005112;28;20580;-73
2024/01/27 01:09:39;;;;;;;21.98;3.08;;;6.80;99.90;;;;;;5004837;28;20042;-72
2024/01/27 01:12:05;;;;;;;22.73;2.42;;;6.80;99.90;;;;;;5006201;28;20528;-73
2024/01/27 01:14:30;;;;;;;16.23;2.70;;;6.80;99.90;;;;;;5005193;28;20042;-73
2024/01/27 01:16:58;;;;;;;17.42;3.05;;;6.90;99.90;;;;;;5007084;28;20135;-73
2024/01/27 01:19:24;;;;;;;;;;;6.90;99.90;;;;;;5009608;28;20026;-72
2024/01/27 01:21:49;;;;;;;26.10;3.03;;;6.80;99.90;;;;;;5007101;28;19920;-72
2024/01/27 01:24:15;;;;;;;40.60;4.03;;;6.70;99.90;;;;;;5007486;28;20380;-72
2024/01/27 01:26:40;;;;;;;22.77;3.72;;;6.70;99.90;;;;;;5004632;28;20034;-73
2024/01/27 01:29:08;;;;;;;24.90;3.03;;;6.70;99.90;;;;;;5009146;28;20041;-72
2024/01/27 01:31:34;;;;;;;25.80;3.97;;;6.60;99.90;;;;;;5020591;28;20030;-72
2024/01/27 01:33:59;;;;;;;20.73;3.55;;;6.70;99.90;;;;;;5005828;28;20029;-72
2024/01/27 01:36:25;;;;;;;14.27;2.72;;;6.60;99.90;;;;;;5009793;28;20042;-72
2024/01/27 01:38:50;;;;;;;27.73;5.45;;;6.60;99.90;;;;;;5004233;28;20550;-73
2024/01/27 01:41:18;;;;;;;25.67;2.83;;;6.50;99.90;;;;;;5005694;28;20034;-72
2024/01/27 01:43:44;;;;;;;31.50;3.17;;;6.40;99.90;;;;;;5004517;28;20042;-72
2024/01/27 01:46:10;;;;;;;30.35;3.42;;;6.40;99.90;;;;;;5005449;28;20034;-72
2024/01/27 01:48:39;;;;;;;28.35;3.08;;;6.30;99.90;;;;;;5008844;28;20121;-72
2024/01/27 01:51:08;;;;;;;29.50;3.63;;;6.30;99.90;;;;;;5005327;28;20536;-72
2024/01/27 01:53:33;;;;;;;22.55;3.70;;;6.20;99.90;;;;;;5004939;28;20049;-72
2024/01/27 01:55:59;;;;;;;27.25;3.00;;;6.20;99.90;;;;;;5006492;28;20045;-73
2024/01/27 01:58:25;;;;;;;22.90;2.97;;;6.10;99.90;;;;;;5004254;28;20018;-72
2024/01/27 02:00:50;;;;;;;20.05;2.97;;;6.10;99.90;;;;;;5005421;28;20030;-72
2024/01/27 02:03:16;;;;;;;22.98;3.40;;;6.00;99.90;;;;;;5006274;28;20030;-72
2024/01/27 02:05:41;;;;;;;23.08;2.92;;;6.00;99.90;;;;;;5006925;28;20034;-72
2024/01/27 02:08:09;;;;;;;21.60;2.85;;;6.00;99.90;;;;;;5002564;28;20034;-72
2024/01/27 02:10:38;;;;;;;;;;;5.90;99.90;;;;;;5005379;28;20076;-72
2024/01/27 02:13:17;;;;;;;26.77;3.17;;;5.90;99.90;;;;;;5002087;28;19909;-73
2024/01/27 02:15:45;;;;;;;20.05;2.83;;;5.80;99.90;;;;;;5005783;28;20504;-72
2024/01/27 02:18:13;;;;;;;21.83;3.17;;;5.80;99.90;;;;;;5004271;28;20041;-72
2024/01/27 02:20:39;;;;;;;22.85;2.72;;;5.70;99.90;;;;;;5003975;28;20041;-72
2024/01/27 02:23:05;;;;;;;21.52;3.25;;;5.70;99.90;;;;;;5004221;28;20114;-72
2024/01/27 02:25:35;;;;;;;27.27;3.17;;;5.60;99.90;;;;;;5005011;28;20029;-72
2024/01/27 02:28:02;;;;;;;21.42;2.72;;;5.60;99.90;;;;;;4999838;28;20124;-73
2024/01/27 02:30:30;;;;;;;36.55;3.20;;;5.60;99.90;;;;;;5005482;28;20191;-72
2024/01/27 02:32:57;;;;;;;;;;;5.60;99.90;;;;;;5005827;28;20120;-72
2024/01/27 02:35:22;;;;;;;21.50;2.97;;;5.60;99.90;;;;;;5002752;28;19917;-72
2024/01/27 02:37:48;;;;;;;21.08;2.88;;;5.50;99.90;;;;;;5007856;28;20034;-72
2024/01/27 02:40:14;;;;;;;18.30;3.25;;;5.60;99.90;;;;;;5004853;28;20766;-72
2024/01/27 02:42:43;;;;;;;25.25;3.17;;;5.50;99.90;;;;;;5004684;28;20061;-73
2024/01/27 02:45:09;;;;;;;20.73;3.15;;;5.50;99.90;;;;;;5003185;28;20542;-73
2024/01/27 02:47:35;;;;;;;23.10;3.05;;;5.40;99.90;;;;;;5001144;28;20034;-73
2024/01/27 02:50:01;;;;;;;24.80;2.75;;;5.40;99.90;;;;;;5002911;28;20036;-72
2024/01/27 02:52:27;;;;;;;27.27;3.47;;;5.50;99.90;;;;;;5002295;28;20593;-73
2024/01/27 02:54:53;;;;;;;23.98;3.17;;;5.40;99.90;;;;;;5003260;28;20492;-72
2024/01/27 02:57:19;;;;;;;26.27;3.92;;;5.40;99.90;;;;;;5001780;28;20117;-72
2024/01/27 02:59:48;;;;;;;21.35;3.28;;;5.40;99.90;;;;;;5004393;28;20046;-73
2024/01/27 03:02:13;;;;;;;19.65;2.55;;;5.40;99.90;;;;;;5003206;28;20518;-72
2024/01/27 03:04:39;;;;;;;23.88;3.55;;;5.40;99.90;;;;;;5002978;28;20115;-72
2024/01/27 03:07:05;;;;;;;19.10;3.13;;;5.40;99.90;;;;;;5003877;28;20076;-73
2024/01/27 03:09:31;;;;;;;32.80;4.13;;;5.40;99.90;;;;;;5003710;28;20049;-72
2024/01/27 03:11:57;;;;;;;19.27;3.03;;;5.40;99.90;;;;;;5004688;28;20038;-72
2024/01/27 03:14:23;;;;;;;17.17;2.50;;;5.40;99.90;;;;;;5002314;28;20091;-73
2024/01/27 03:16:49;;;;;;;27.90;3.25;;;5.30;99.90;;;;;;4999131;28;20125;-73
2024/01/27 03:19:14;;;;;;;34.28;3.08;;;5.30;99.90;;;;;;5004124;28;20046;-73
2024/01/27 03:21:42;;;;;;;27.98;3.22;;;5.30;99.90;;;;;;5005591;28;20540;-72
2024/01/27 03:24:08;;;;;;;;;;;5.30;99.90;;;;;;5008711;28;20216;-73
2024/01/27 03:26:36;;;;;;;17.42;2.80;;;5.30;99.90;;;;;;5006940;28;20004;-72
2024/01/27 03:29:04;;;;;;;;;;;5.30;99.90;;;;;;5010087;28;20354;-72
2024/01/27 03:31:32;;;;;;;;;;;5.30;99.90;;;;;;5007520;28;19909;-72
2024/01/27 03:33:59;;;;;;;34.75;2.88;;;5.30;99.90;;;;;;5005503;28;20368;-72
2024/01/27 03:36:24;;;;;;;17.70;3.35;;;5.30;99.90;;;;;;5005984;28;20057;-72
2024/01/27 03:38:50;;;;;;;22.80;3.28;;;5.20;99.90;;;;;;5002779;28;20074;-73
2024/01/27 03:41:18;;;;;;;19.50;3.03;;;5.20;99.90;;;;;;5007395;28;20546;-72
2024/01/27 03:43:44;;;;;;;27.55;2.60;;;5.20;99.90;;;;;;5007826;28;20030;-73
2024/01/27 03:46:09;;;;;;;29.15;3.10;;;5.20;99.90;;;;;;5008008;28;20376;-73
2024/01/27 03:48:35;;;;;;;29.92;4.43;;;5.20;99.90;;;;;;5008435;28;20581;-72
2024/01/27 03:51:01;;;;;;;22.65;3.20;;;5.10;99.90;;;;;;5013473;28;20041;-72
2024/01/27 03:53:29;;;;;;;27.88;2.90;;;5.10;99.90;;;;;;5009241;28;20030;-72
2024/01/27 03:55:58;;;;;;;19.67;2.95;;;5.10;99.90;;;;;;5008154;28;20117;-72
2024/01/27 03:58:26;;;;;;;29.98;3.75;;;5.00;99.90;;;;;;5007420;28;20034;-72
2024/01/27 04:00:51;;;;;;;14.98;2.28;;;5.10;99.90;;;;;;5009123;28;20030;-72
2024/01/27 04:03:17;;;;;;;11.32;3.03;;;5.10;99.90;;;;;;5010934;28;20366;-72
2024/01/27 04:05:43;;;;;;;34.63;3.70;;;5.10;99.90;;;;;;5012272;28;20049;-73
2024/01/27 04:08:11;;;;;;;18.85;3.60;;;5.10;99.90;;;;;;5007724;28;20072;-72
2024/01/27 04:10:39;;;;;;;17.50;2.90;;;5.10;99.90;;;;;;5006717;28;20522;-73
2024/01/27 04:13:08;;;;;;;19.90;2.88;;;5.10;99.90;;;;;;5007930;28;20026;-72
2024/01/27 04:15:38;;;;;;;;;;;5.10;99.90;;;;;;5006876;28;20026;-72
2024/01/27 04:18:04;;;;;;;21.98;2.67;;;5.10;99.90;;;;;;5006913;28;20001;-72
2024/01/27 04:20:32;;;;;;;25.52;3.80;;;5.00;99.90;;;;;;5009879;28;20120;-72
2024/01/27 04:23:00;;;;;;;;;;;5.00;99.90;;;;;;5008380;28;20588;-72
2024/01/27 04:25:26;;;;;;;;;;;5.00;99.90;;;;;;5008496;28;19916;-72
2024/01/27 04:27:51;;;;;;;16.23;2.60;;;5.00;99.90;;;;;;5025117;28;19918;-73
2024/01/27 04:30:17;;;;;;;23.55;3.00;;;5.00;99.90;;;;;;5008386;28;20041;-72
2024/01/27 04:32:43;;;;;;;30.83;2.80;;;5.00;99.90;;;;;;5007300;28;20033;-72
2024/01/27 04:35:10;;;;;;;27.27;3.42;;;5.00;99.90;;;;;;5008336;28;20208;-72
2024/01/27 04:37:35;;;;;;;24.43;3.27;;;5.00;99.90;;;;;;5008134;28;20816;-72
2024/01/27 04:40:01;;;;;;;18.02;3.03;;;5.00;99.90;;;;;;5007599;28;20029;-73
2024/01/27 04:42:29;;;;;;;29.60;2.92;;;5.00;99.90;;;;;;5007482;28;20550;-72
2024/01/27 04:44:54;;;;;;;;;;;5.00;99.90;;;;;;5007191;28;20100;-72
2024/01/27 04:47:20;;;;;;;28.63;3.03;;;5.00;99.90;;;;;;5006485;28;20380;-74
2024/01/27 04:49:45;;;;;;;20.92;3.28;;;4.90;99.90;;;;;;5008164;28;20033;-74
2024/01/27 04:52:11;;;;;;;23.50;2.97;;;4.90;99.90;;;;;;5006494;28;20570;-73
2024/01/27 04:54:36;;;;;;;20.75;4.88;;;4.90;99.90;;;;;;5005123;28;20042;-72
2024/01/27 04:57:02;;;;;;;26.77;3.40;;;4.90;99.90;;;;;;5009116;28;20041;-73
2024/01/27 04:59:28;;;;;;;20.17;2.80;;;4.90;99.90;;;;;;5009857;28;20540;-72
2024/01/27 05:01:53;;;;;;;20.58;3.47;;;4.90;99.90;;;;;;5006195;28;20041;-73
2024/01/27 05:04:19;;;;;;;13.77;2.30;;;4.90;99.90;;;;;;5005872;28;20018;-72
2024/01/27 05:06:45;;;;;;;21.67;2.97;;;4.90;99.90;;;;;;5012177;28;20443;-72
2024/01/27 05:09:11;;;;;;;25.20;3.30;;;4.90;99.90;;;;;;5008385;28;20132;-73
2024/01/27 05:11:39;;;;;;;22.33;2.67;;;4.80;99.90;;;;;;5006140;28;20169;-73
2024/01/27 05:14:05;;;;;;;19.77;3.05;;;4.80;99.90;;;;;;5004636;28;20069;-72
2024/01/27 05:16:31;;;;;;;18.08;2.35;;;4.80;99.90;;;;;;5009543;28;20599;-73
2024/01/27 05:18:57;;;;;;;28.98;3.25;;;4.80;99.90;;;;;;5003946;28;20033;-72
2024/01/27 05:21:23;;;;;;;16.15;2.67;;;4.80;99.90;;;;;;5003645;28;20033;-72
2024/01/27 05:23:50;;;;;;;18.33;2.80;;;4.80;99.90;;;;;;5001595;28;20121;-73
2024/01/27 05:26:16;;;;;;;17.02;2.78;;;4.80;99.90;;;;;;5000781;28;20034;-72
2024/01/27 05:28:42;;;;;;;24.15;2.70;;;4.70;99.90;;;;;;5009712;28;20412;-72
2024/01/27 05:31:11;;;;;;;23.90;3.58;;;4.80;99.90;;;;;;5004290;28;20041;-73
2024/01/27 05:33:37;;;;;;;21.33;2.92;;;4.80;99.90;;;;;;5005735;28;20102;-73
2024/01/27 05:36:03;;;;;;;25.58;3.55;;;4.70;99.90;;;;;;5004668;28;20049;-73
2024/01/27 05:38:31;;;;;;;16.73;3.28;;;4.80;99.90;;;;;;5005993;28;20030;-72
2024/01/27 05:41:00;;;;;;;21.05;2.55;;;4.80;99.90;;;;;;5005049;28;20054;-72
2024/01/27 05:43:26;;;;;;;17.40;2.75;;;4.70;99.90;;;;;;5004308;28;20121;-72
2024/01/27 05:45:54;;;;;;;19.48;2.58;;;4.60;99.90;;;;;;5005193;28;20054;-73
2024/01/27 05:48:22;;;;;;;14.20;2.72;;;4.80;99.90;;;;;;5004123;28;20500;-75
2024/01/27 05:50:58;;;;;;;18.65;3.10;;;4.70;99.90;;;;;;5003728;28;20045;-74
2024/01/27 05:53:24;;;;;;;19.90;3.03;;;4.70;99.90;;;;;;5004782;28;20053;-75
2024/01/27 05:55:56;;;;;;;18.90;2.97;;;4.70;99.90;;;;;;5010457;28;20030;-74
2024/01/27 05:58:22;;;;;;;16.42;2.45;;;4.70;99.90;;;;;;5010931;28;20500;-75
2024/01/27 06:00:48;;;;;;;21.90;2.88;;;4.70;99.90;;;;;;5007923;28;20053;-72
2024/01/27 06:03:15;;;;;;;25.00;3.20;;;4.70;99.90;;;;;;5006760;28;20026;-72
2024/01/27 06:05:43;;;;;;;18.45;3.08;;;4.70;99.90;;;;;;5008492;28;20041;-72
2024/01/27 06:08:09;;;;;;;20.30;2.88;;;4.70;99.90;;;;;;5004649;28;20118;-73
2024/01/27 06:10:36;;;;;;;24.65;2.90;;;4.60;99.90;;;;;;5003357;28;20112;-72
2024/01/27 06:13:03;;;;;;;21.75;3.03;;;4.70;99.90;;;;;;5003222;28;20029;-72
2024/01/27 06:15:28;;;;;;;22.58;2.85;;;4.70;99.90;;;;;;5005516;28;20030;-72
2024/01/27 06:17:57;;;;;;;19.10;3.17;;;4.70;99.90;;;;;;4996437;28;20038;-72
2024/01/27 06:20:25;;;;;;;16.60;2.38;;;4.70;99.90;;;;;;4999604;28;20052;-72
2024/01/27 06:22:52;;;;;;;;;;;4.70;99.90;;;;;;5003153;28;20037;-73
2024/01/27 06:25:17;;;;;;;21.25;3.25;;;4.70;99.90;;;;;;5003397;28;19913;-72
2024/01/27 06:27:43;;;;;;;18.33;3.38;;;4.60;99.90;;;;;;5005234;28;20067;-72
2024/01/27 06:30:10;;;;;;;21.83;3.40;;;4.60;99.90;;;;;;5001341;28;20026;-72
2024/01/27 06:32:36;;;;;;;23.42;3.60;;;4.60;99.90;;;;;;5002308;28;20030;-73
2024/01/27 06:35:03;;;;;;;16.48;3.20;;;4.60;99.90;;;;;;5002385;28;20397;-73
2024/01/27 06:37:28;;;;;;;18.45;3.35;;;4.60;99.90;;;;;;5004164;28;20048;-72
2024/01/27 06:39:54;;;;;;;17.63;3.53;;;4.60;99.90;;;;;;5003987;28;20025;-72
2024/01/27 06:42:22;;;;;;;24.88;3.08;;;4.60;99.90;;;;;;5002741;28;20041;-73
2024/01/27 06:44:52;;;;;;;18.13;3.35;;;4.60;99.90;;;;;;5005107;28;20136;-72
2024/01/27 06:47:18;;;;;;;20.30;3.55;;;4.60;99.90;;;;;;5023212;23;20064;-72
2024/01/27 06:49:46;;;;;;;20.45;3.97;;;4.50;99.90;;;;;;5022724;28;20591;-71
2024/01/27 06:52:12;;;;;;;;;;;4.60;99.90;;;;;;5019486;28;20085;-74
2024/01/27 06:54:41;;;;;;;23.17;3.42;;;4.60;99.90;;;;;;5018769;28;20063;-74
2024/01/27 06:57:06;;;;;;;14.70;2.75;;;4.60;99.90;;;;;;5020197;28;20041;-74
2024/01/27 06:59:36;;;;;;;17.00;2.85;;;4.60;99.90;;;;;;5023884;28;20037;-74
2024/01/27 07:02:02;;;;;;;25.50;2.45;;;4.60;99.90;;;;;;5023054;28;20631;-74
2024/01/27 07:04:27;;;;;;;20.98;3.67;;;4.60;99.90;;;;;;5020444;28;20033;-74
2024/01/27 07:06:53;;;;;;;13.82;2.60;;;4.70;99.90;;;;;;5020033;28;20040;-72
2024/01/27 07:09:21;;;;;;;23.95;3.35;;;4.70;99.90;;;;;;5021625;28;20161;-72
2024/01/27 07:11:52;;;;;;;18.88;2.53;;;4.70;99.90;;;;;;5022754;28;20065;-72
2024/01/27 07:14:17;;;;;;;16.70;2.95;;;4.60;99.90;;;;;;5024127;28;20041;-72
2024/01/27 07:16:43;;;;;;;18.70;2.45;;;4.70;99.90;;;;;;5019630;28;20049;-72
2024/01/27 07:19:11;;;;;;;18.40;2.83;;;4.70;99.90;;;;;;5018844;28;21963;-76
2024/01/27 07:21:39;;;;;;;21.52;3.17;;;4.70;99.90;;;;;;5019691;28;20025;-72
2024/01/27 07:24:04;;;;;;;;;;;4.70;99.90;;;;;;5015390;28;20041;-71
2024/01/27 07:26:31;;;;;;;19.08;2.28;;;4.70;99.90;;;;;;5018458;28;19921;-72
2024/01/27 07:28:57;;;;;;;12.43;2.53;;;4.70;99.90;;;;;;5019654;28;20038;-73
2024/01/27 07:31:24;;;;;;;20.85;3.30;;;4.70;99.90;;;;;;5022592;28;20113;-72
2024/01/27 07:33:52;;;;;;;17.25;3.03;;;4.80;99.90;;;;;;5018127;28;20049;-74
2024/01/27 07:36:17;;;;;;;;;;;4.80;99.90;;;;;;5017073;28;20120;-73
2024/01/27 07:38:43;;;;;;;18.92;3.75;;;4.80;99.90;;;;;;5020004;28;19948;-72
2024/01/27 07:41:08;;;;;;;17.15;3.70;;;4.80;99.90;;;;;;5021617;28;20545;-72
2024/01/27 07:43:34;;;;;;;20.40;4.10;;;4.80;99.90;;;;;;5021568;28;20029;-72
2024/01/27 07:46:00;;;;;;;30.73;3.67;;;4.80;99.90;;;;;;5020756;28;20034;-72
2024/01/27 07:48:25;;;;;;;27.20;3.70;;;4.80;99.90;;;;;;5021406;28;20029;-72
2024/01/27 07:50:51;;;;;;;22.35;4.15;;;4.80;99.90;;;;;;5023520;28;20827;-72
2024/01/27 07:53:17;;;;;;;23.75;3.90;;;4.80;99.90;;;;;;5021082;28;20041;-72
2024/01/27 07:55:45;;;;;;;26.45;3.28;;;4.90;99.90;;;;;;5016527;28;20144;-72
2024/01/27 07:58:10;;;;;;;;;;;4.90;99.90;;;;;;5014170;28;20250;-73
2024/01/27 08:00:36;;;;;;;24.98;5.57;;;4.90;99.90;;;;;;5016164;28;20271;-72
2024/01/27 08:03:01;;;;;;;23.48;3.55;;;4.90;99.90;;;;;;5016992;28;20118;-72
2024/01/27 08:05:27;;;;;;;18.95;3.30;;;4.90;99.90;;;;;;5020142;28;20041;-72
2024/01/27 08:07:55;;;;;;;25.10;3.05;;;5.00;99.90;;;;;;5018436;28;20377;-73
2024/01/27 08:10:22;;;;;;;;;;;5.00;99.90;;;;;;5032239;28;20036;-76
2024/01/27 08:12:48;;;;;;;19.50;3.30;;;5.00;99.90;;;;;;5018344;28;20006;-73
2024/01/27 08:15:13;;;;;;;15.65;3.03;;;5.10;99.90;;;;;;5016547;28;20088;-73
2024/01/27 08:17:39;;;;;;;20.55;3.10;;;5.00;99.90;;;;;;5020735;28;20037;-73
2024/01/27 08:20:05;;;;;;;18.48;2.97;;;5.20;99.90;;;;;;5025332;28;20068;-73
2024/01/27 08:22:31;;;;;;;22.52;3.40;;;5.10;99.90;;;;;;5021139;28;20033;-74
2024/01/27 08:24:58;;;;;;;30.60;3.35;;;5.20;99.90;;;;;;5023569;28;20035;-74
2024/01/27 08:27:26;;;;;;;17.60;2.85;;;5.20;99.90;;;;;;5023013;28;20033;-74
2024/01/27 08:29:54;;;;;;;19.20;2.63;;;5.20;99.90;;;;;;5017324;28;20509;-74
2024/01/27 08:32:20;;;;;;;17.80;2.67;;;5.30;99.90;;;;;;5016721;28;20056;-74
2024/01/27 08:34:50;;;;;;;17.73;3.53;;;5.30;99.90;;;;;;5015023;28;20814;-74
2024/01/27 08:37:21;;;;;;;19.83;2.53;;;5.40;99.90;;;;;;5022017;28;20029;-74
2024/01/27 08:39:47;;;;;;;18.77;3.25;;;5.40;99.90;;;;;;5015083;28;20095;-73
2024/01/27 08:42:15;;;;;;;16.95;3.42;;;5.40;99.90;;;;;;5021489;28;20148;-74
2024/01/27 08:44:40;;;;;;;16.38;3.30;;;5.40;99.90;;;;;;5022782;28;20499;-73
2024/01/27 08:47:06;;;;;;;20.20;2.88;;;5.40;99.90;;;;;;5022107;28;20041;-73
2024/01/27 08:49:32;;;;;;;18.63;2.83;;;5.50;99.90;;;;;;5018658;28;20057;-73
2024/01/27 08:52:02;;;;;;;25.27;3.60;;;5.50;99.90;;;;;;5017082;28;20030;-72
2024/01/27 08:54:27;;;;;;;18.90;3.45;;;5.50;99.90;;;;;;5018674;28;20036;-73
2024/01/27 08:56:53;;;;;;;17.92;3.50;;;5.50;99.90;;;;;;5017269;28;20516;-73
2024/01/27 08:59:21;;;;;;;16.13;3.25;;;5.60;99.90;;;;;;5019886;28;20038;-73
2024/01/27 09:01:56;;;;;;;15.57;3.88;;;5.60;99.90;;;;;;5017829;28;20048;-71
2024/01/27 09:04:21;;;;;;;18.35;3.63;;;5.60;99.90;;;;;;5022929;28;20116;-73
2024/01/27 09:06:47;;;;;;;27.83;3.35;;;5.70;99.90;;;;;;5021488;28;20167;-73
2024/01/27 09:09:13;;;;;;;18.58;3.70;;;5.70;99.90;;;;;;5023773;28;20052;-74
2024/01/27 09:11:38;;;;;;;20.83;2.97;;;5.80;99.90;;;;;;5025176;28;20032;-73
2024/01/27 09:14:07;;;;;;;19.63;4.28;;;5.80;99.90;;;;;;5027607;28;20479;-73
2024/01/27 09:16:32;;;;;;;;;;;5.90;99.90;;;;;;5027704;28;20602;-74
2024/01/27 09:18:58;;;;;;;25.13;4.15;;;5.90;99.90;;;;;;5018983;28;20043;-73
2024/01/27 09:21:28;;;;;;;17.27;3.60;;;5.90;99.90;;;;;;5024795;28;20045;-75
2024/01/27 09:23:57;;;;;;;12.68;3.88;;;5.90;99.90;;;;;;5021714;28;20033;-73
2024/01/27 09:26:23;;;;;;;21.00;4.20;;;6.00;99.90;;;;;;5022204;28;20722;-74
2024/01/27 09:28:54;;;;;;;26.60;4.72;;;6.10;99.90;;;;;;5023758;28;20076;-73
2024/01/27 09:31:23;;;;;;;14.52;3.85;;;6.10;99.90;;;;;;5024850;28;20496;-74
2024/01/27 09:33:51;;;;;;;20.95;4.25;;;6.20;99.90;;;;;;5024370;28;20045;-73
2024/01/27 09:36:20;;;;;;;21.65;3.65;;;6.20;99.90;;;;;;5023341;28;20035;-74
2024/01/27 09:38:46;;;;;;;26.40;3.60;;;6.30;99.90;;;;;;5021493;28;20125;-74
2024/01/27 09:41:13;;;;;;;21.42;3.47;;;6.40;99.90;;;;;;5026035;28;20087;-73
2024/01/27 09:43:47;;;;;;;26.10;5.03;;;6.40;99.90;;;;;;5016904;28;20108;-74
2024/01/27 09:46:16;;;;;;;18.77;4.03;;;6.40;99.90;;;;;;5022073;28;20168;-77
2024/01/27 09:48:44;;;;;;;18.08;4.15;;;6.50;99.90;;;;;;5018135;28;20060;-75
2024/01/27 09:51:11;;;;;;;26.17;4.38;;;6.60;99.90;;;;;;5021111;28;20527;-74
2024/01/27 09:53:37;;;;;;;17.25;4.07;;;6.60;99.90;;;;;;5015165;28;20053;-74
2024/01/27 09:56:03;;;;;;;18.00;3.83;;;6.70;99.90;;;;;;5018452;28;20104;-74
2024/01/27 09:58:32;;;;;;;21.58;3.65;;;6.70;99.90;;;;;;5018144;28;20353;-75
2024/01/27 10:00:59;;;;;;;24.20;4.13;;;6.80;99.90;;;;;;5024383;28;20155;-75
2024/01/27 10:03:28;;;;;;;21.20;4.15;;;6.90;99.90;;;;;;5019231;28;20029;-75
2024/01/27 10:05:56;;;;;;;18.33;4.47;;;6.90;99.90;;;;;;5013897;28;20044;-74
2024/01/27 10:08:24;;;;;;;15.23;4.28;;;7.00;99.90;;;;;;5020841;28;20116;-75
2024/01/27 10:10:56;;;;;;;18.38;3.92;;;7.10;99.90;;;;;;5020325;28;20033;-77
2024/01/27 10:13:28;;;;;;;22.08;3.78;;;7.10;99.90;;;;;;5016726;28;20053;-73
2024/01/27 10:16:04;;;;;;;21.27;4.85;;;7.10;99.90;;;;;;5019328;28;20600;-73
2024/01/27 10:18:31;;;;;;;20.83;4.50;;;7.20;99.90;;;;;;5016552;28;20046;-75
2024/01/27 10:20:57;;;;;;;27.55;5.18;;;7.30;99.90;;;;;;5019984;28;20030;-72
2024/01/27 10:23:23;;;;;;;22.20;5.22;;;7.30;99.90;;;;;;5020536;28;20225;-75
2024/01/27 10:25:50;;;;;;;21.98;4.65;;;7.50;99.90;;;;;;5014251;28;20036;-75
2024/01/27 10:28:16;;;;;;;26.10;4.95;;;7.70;99.90;;;;;;5015933;28;20018;-75
2024/01/27 10:30:42;;;;;;;20.65;4.43;;;7.80;99.90;;;;;;5015089;28;20075;-76
2024/01/27 10:33:14;;;;;;;15.35;4.22;;;7.90;99.90;;;;;;5018794;28;20116;-75
2024/01/27 10:35:43;;;;;;;22.40;4.57;;;8.00;99.90;;;;;;5014106;28;20041;-76
2024/01/27 10:38:09;;;;;;;16.02;3.92;;;8.10;99.90;;;;;;5015388;28;20039;-76
2024/01/27 10:40:36;;;;;;;20.02;3.75;;;8.30;99.90;;;;;;5025390;28;20070;-76
2024/01/27 10:43:06;;;;;;;21.77;4.45;;;8.50;99.90;;;;;;5019275;28;20167;-76
2024/01/27 10:45:38;;;;;;;15.35;3.80;;;8.60;99.90;;;;;;5021013;28;20052;-76
2024/01/27 10:48:05;;;;;;;24.13;4.30;;;8.70;99.90;;;;;;5029538;28;20026;-76
2024/01/27 10:50:35;;;;;;;19.27;4.75;;;8.80;99.90;;;;;;5025979;28;20042;-76
2024/01/27 10:53:03;;;;;;;14.80;4.00;;;8.80;99.90;;;;;;5015533;28;20084;-76
2024/01/27 10:55:32;;;;;;;;;;;8.90;99.90;;;;;;5019875;28;20036;-76
2024/01/27 10:58:01;;;;;;;20.65;4.50;;;8.90;99.90;;;;;;5050804;28;19959;-76
2024/01/27 11:00:31;;;;;;;18.67;4.75;;;9.10;99.90;;;;;;5017134;28;20751;-76
2024/01/27 11:03:08;;;;;;;22.17;4.47;;;9.20;99.90;;;;;;5011392;28;20033;-76
2024/01/27 11:05:36;;;;;;;20.45;4.15;;;9.30;99.90;;;;;;5032553;28;20045;-76
2024/01/27 11:08:04;;;;;;;23.20;4.43;;;9.40;99.90;;;;;;5010505;28;20215;-76
2024/01/27 11:10:35;;;;;;;19.45;3.65;;;9.50;99.90;;;;;;5016060;28;20589;-74
2024/01/27 11:13:04;;;;;;;20.25;4.53;;;9.60;99.90;;;;;;5018455;28;20463;-75
2024/01/27 11:15:30;;;;;;;23.67;4.20;;;9.60;99.90;;;;;;5018610;28;20053;-76
2024/01/27 11:17:59;;;;;;;19.60;5.03;;;9.80;99.90;;;;;;5018765;28;20061;-76
2024/01/27 11:20:25;;;;;;;18.23;5.28;;;10.00;99.90;;;;;;5020590;28;20129;-76
2024/01/27 11:22:52;;;;;;;24.83;4.60;;;9.90;99.90;;;;;;5021661;28;20459;-76
2024/01/27 11:25:18;;;;;;;23.65;4.70;;;10.00;99.90;;;;;;5021212;28;20383;-76
2024/01/27 11:27:46;;;;;;;21.77;3.75;;;10.20;99.90;;;;;;5019759;28;20121;-76
2024/01/27 11:30:25;;;;;;;;;;;10.50;99.90;;;;;;5024439;28;20044;-77
2024/01/27 11:32:50;;;;;;;17.83;4.50;;;10.50;99.90;;;;;;5024074;28;20020;-77
2024/01/27 11:35:21;;;;;;;18.30;4.88;;;10.70;99.90;;;;;;5020726;28;20109;-77
2024/01/27 11:37:48;;;;;;;24.38;5.38;;;10.80;99.90;;;;;;5021333;28;20030;-77
2024/01/27 11:40:15;;;;;;;16.35;4.00;;;10.90;99.90;;;;;;5022960;28;20025;-76
2024/01/27 11:42:41;;;;;;;17.08;5.57;;;11.10;99.90;;;;;;5022023;28;20041;-77
2024/01/27 11:45:09;;;;;;;20.30;3.70;;;11.40;99.90;;;;;;5024475;28;20030;-73
2024/01/27 11:47:34;;;;;;;22.45;4.43;;;11.60;99.90;;;;;;5025520;28;20047;-74
2024/01/27 11:50:00;;;;;;;19.25;4.53;;;11.90;99.80;;;;;;5024812;28;20033;-74
2024/01/27 11:52:28;;;;;;;13.82;3.85;;;12.10;99.50;;;;;;5025353;28;20067;-75
2024/01/27 11:54:59;;;;;;;18.00;4.13;;;12.60;99.20;;;;;;5021023;28;20061;-74
2024/01/27 11:57:32;;;;;;;15.05;3.90;;;12.60;97.90;;;;;;5022926;28;20506;-74
2024/01/27 11:59:57;;;;;;;20.13;3.92;;;12.70;97.70;;;;;;5023650;28;20045;-74
2024/01/27 12:02:25;;;;;;;17.85;4.13;;;12.80;97.20;;;;;;5024941;28;20037;-74
2024/01/27 12:04:54;;;;;;;18.13;4.07;;;12.70;96.90;;;;;;5018339;28;20520;-74
2024/01/27 12:07:24;;;;;;;21.00;3.83;;;12.80;97.10;;;;;;5024547;28;20164;-74
2024/01/27 12:09:52;;;;;;;14.68;3.75;;;13.10;97.30;;;;;;5023384;28;20037;-74
2024/01/27 12:12:18;;;;;;;;;;;13.10;96.10;;;;;;5026429;28;20044;-74
2024/01/27 12:14:48;;;;;;;9.65;3.33;;;12.80;96.10;;;;;;5024777;28;19913;-74
2024/01/27 12:17:15;;;;;;;13.25;3.42;;;12.60;96.20;;;;;;5020369;28;20048;-74
2024/01/27 12:19:49;;;;;;;19.55;4.25;;;12.40;96.20;;;;;;5024168;28;20129;-74
2024/01/27 12:22:28;;;;;;;17.95;3.78;;;12.20;96.20;;;;;;5026366;28;20033;-74
2024/01/27 12:25:08;;;;;;;17.17;4.20;;;11.70;96.40;;;;;;5026075;28;20080;-74
2024/01/27 12:27:34;;;;;;;17.95;3.85;;;11.70;97.00;;;;;;5018247;28;20041;-74
2024/01/27 12:30:01;;;;;;;20.98;3.60;;;11.60;96.80;;;;;;5024775;28;20112;-74
2024/01/27 12:32:26;;;;;;;20.67;4.25;;;11.50;97.30;;;;;;5035503;28;20038;-73
2024/01/27 12:34:52;;;;;;;14.77;3.55;;;11.40;96.90;;;;;;5017944;28;20583;-74
2024/01/27 12:37:21;;;;;;;16.70;3.40;;;11.20;96.90;;;;;;5028003;28;20022;-73
2024/01/27 12:39:50;;;;;;;17.65;4.20;;;10.70;96.90;;;;;;5025585;28;20461;-77
2024/01/27 12:42:18;;;;;;;18.48;4.50;;;10.70;97.30;;;;;;5023907;28;20044;-73
2024/01/27 12:44:44;;;;;;;24.35;4.28;;;10.60;97.60;;;;;;5022075;28;20030;-73
2024/01/27 12:47:12;;;;;;;18.35;3.70;;;10.50;97.80;;;;;;5020961;23;20571;-73
2024/01/27 12:49:39;;;;;;;19.38;4.40;;;10.60;98.20;;;;;;5013538;28;20061;-73
2024/01/27 12:52:05;;;;;;;13.82;3.42;;;10.60;97.60;;;;;;5021116;28;20014;-73